EDFM METAR and TAF | Updated Today

EDFM METAR

Mannheim-City Airport

Observation time: 2:19 hr. ago

EDFM 291850Z VRB03KT CAVOK 12/08 Q1005

Need help? Read our tutorial on how to read METARs or read the parsed version below.

Mannheim-City Airport (EDFM) METAR

  • Weather conditions on Thu, 29 Sep 2022 18:50:00 +0000 (2:19 hr. ago):
  • Present conditions: Dry
  • Clouds: Clear skies
  • Visibility: Greater than 10 km
  • Wind: Variable at 3 knots
  • Temperature: 12 celsius
  • Dew point: 8 celsius
  • Pressure: 1005 millibars
  • Remarks: None


Useful to know...

EDFM TAF

Mannheim-City Airport

TAF EDFM 291700Z 2918/2921 VRB02KT 9999 FEW040
Observation time: 4:09 hr. ago
Need help? Read our tutorial on how to read TAFs or read the parsed version below.

Parsed version of TAF for Mannheim-City Airport (EDFM)

  • From 29 September at 18:00 UTC, to day 29 of the month at 21:00 UTC
  • Clouds: A few at 1219 meters
  • Visibility: Greater than 10 km
  • Wind: Variable at 2